sensor_id;sensor_type;location;lat;lon;timestamp;temperature;humidity
26743;DHT22;14341;51.256;22.478;2022-09-03T00:01:36;7.50;99.90
26743;DHT22;14341;51.256;22.478;2022-09-03T00:04:52;7.50;99.90
26743;DHT22;14341;51.256;22.478;2022-09-03T00:08:02;7.50;99.90
26743;DHT22;14341;51.256;22.478;2022-09-03T00:11:12;7.40;99.90
26743;DHT22;14341;51.256;22.478;2022-09-03T00:14:22;7.40;99.90
26743;DHT22;14341;51.256;22.478;2022-09-03T00:17:29;7.40;99.90
26743;DHT22;14341;51.256;22.478;2022-09-03T00:20:39;7.40;99.90
26743;DHT22;14341;51.256;22.478;2022-09-03T00:23:45;7.40;99.90
26743;DHT22;14341;51.256;22.478;2022-09-03T00:26:52;7.40;99.90
26743;DHT22;14341;51.256;22.478;2022-09-03T00:30:00;7.40;99.90
26743;DHT22;14341;51.256;22.478;2022-09-03T00:33:08;7.50;99.90
26743;DHT22;14341;51.256;22.478;2022-09-03T00:36:18;7.30;99.90
26743;DHT22;14341;51.256;22.478;2022-09-03T00:39:24;7.30;99.90
26743;DHT22;14341;51.256;22.478;2022-09-03T00:42:39;7.30;99.90
26743;DHT22;14341;51.256;22.478;2022-09-03T00:45:53;7.30;99.90
26743;DHT22;14341;51.256;22.478;2022-09-03T00:49:20;7.20;99.90
26743;DHT22;14341;51.256;22.478;2022-09-03T00:52:41;7.20;99.90
26743;DHT22;14341;51.256;22.478;2022-09-03T00:55:51;7.20;99.90
26743;DHT22;14341;51.256;22.478;2022-09-03T00:59:11;7.20;99.90
26743;DHT22;14341;51.256;22.478;2022-09-03T01:02:25;7.20;99.90
26743;DHT22;14341;51.256;22.478;2022-09-03T01:05:42;7.10;99.90
26743;DHT22;14341;51.256;22.478;2022-09-03T01:09:02;7.10;99.90
26743;DHT22;14341;51.256;22.478;2022-09-03T01:12:17;7.00;99.90
26743;DHT22;14341;51.256;22.478;2022-09-03T01:15:29;7.00;99.90
26743;DHT22;14341;51.256;22.478;2022-09-03T01:18:38;7.00;99.90
26743;DHT22;14341;51.256;22.478;2022-09-03T01:22:06;6.90;99.90
26743;DHT22;14341;51.256;22.478;2022-09-03T01:25:35;6.90;99.90
26743;DHT22;14341;51.256;22.478;2022-09-03T01:28:49;6.90;99.90
26743;DHT22;14341;51.256;22.478;2022-09-03T01:32:02;6.90;99.90
26743;DHT22;14341;51.256;22.478;2022-09-03T01:35:16;6.80;99.90
26743;DHT22;14341;51.256;22.478;2022-09-03T01:38:28;6.80;99.90
26743;DHT22;14341;51.256;22.478;2022-09-03T01:41:42;6.70;99.90
26743;DHT22;14341;51.256;22.478;2022-09-03T01:45:09;6.70;99.90
26743;DHT22;14341;51.256;22.478;2022-09-03T01:48:31;6.70;99.90
26743;DHT22;14341;51.256;22.478;2022-09-03T01:51:39;6.70;99.90
26743;DHT22;14341;51.256;22.478;2022-09-03T01:54:54;6.60;99.90
26743;DHT22;14341;51.256;22.478;2022-09-03T01:58:06;6.60;99.90
26743;DHT22;14341;51.256;22.478;2022-09-03T02:01:17;6.60;99.90
26743;DHT22;14341;51.256;22.478;2022-09-03T02:04:26;6.60;99.90
26743;DHT22;14341;51.256;22.478;2022-09-03T02:07:31;6.50;99.90
26743;DHT22;14341;51.256;22.478;2022-09-03T02:10:40;6.50;99.90
26743;DHT22;14341;51.256;22.478;2022-09-03T02:13:48;6.50;99.90
26743;DHT22;14341;51.256;22.478;2022-09-03T02:16:54;6.50;99.90
26743;DHT22;14341;51.256;22.478;2022-09-03T02:20:04;6.40;99.90
26743;DHT22;14341;51.256;22.478;2022-09-03T02:23:08;6.40;99.90
26743;DHT22;14341;51.256;22.478;2022-09-03T02:26:15;6.40;99.90
26743;DHT22;14341;51.256;22.478;2022-09-03T02:29:18;6.60;99.90
26743;DHT22;14341;51.256;22.478;2022-09-03T02:32:23;6.40;99.90
26743;DHT22;14341;51.256;22.478;2022-09-03T02:35:27;6.30;99.90
26743;DHT22;14341;51.256;22.478;2022-09-03T02:38:31;6.30;99.90
26743;DHT22;14341;51.256;22.478;2022-09-03T02:41:34;6.30;99.90
26743;DHT22;14341;51.256;22.478;2022-09-03T02:44:40;6.30;99.90
26743;DHT22;14341;51.256;22.478;2022-09-03T02:47:49;6.20;99.90
26743;DHT22;14341;51.256;22.478;2022-09-03T02:50:54;6.20;99.90
26743;DHT22;14341;51.256;22.478;2022-09-03T02:53:57;6.20;99.90
26743;DHT22;14341;51.256;22.478;2022-09-03T02:57:00;6.20;99.90
26743;DHT22;14341;51.256;22.478;2022-09-03T03:00:04;6.10;99.90
26743;DHT22;14341;51.256;22.478;2022-09-03T03:03:10;6.10;99.90
26743;DHT22;14341;51.256;22.478;2022-09-03T03:06:13;6.10;99.90
26743;DHT22;14341;51.256;22.478;2022-09-03T03:09:17;6.10;99.90
26743;DHT22;14341;51.256;22.478;2022-09-03T03:12:20;6.10;99.90
26743;DHT22;14341;51.256;22.478;2022-09-03T03:15:23;6.00;99.90
26743;DHT22;14341;51.256;22.478;2022-09-03T03:18:28;6.00;99.90
26743;DHT22;14341;51.256;22.478;2022-09-03T03:21:32;6.00;99.90
26743;DHT22;14341;51.256;22.478;2022-09-03T03:24:35;5.90;99.90
26743;DHT22;14341;51.256;22.478;2022-09-03T03:27:38;5.90;99.90
26743;DHT22;14341;51.256;22.478;2022-09-03T03:30:43;5.90;99.90
26743;DHT22;14341;51.256;22.478;2022-09-03T03:33:52;5.90;99.90
26743;DHT22;14341;51.256;22.478;2022-09-03T03:36:55;5.80;99.90
26743;DHT22;14341;51.256;22.478;2022-09-03T03:40:00;5.80;99.90
26743;DHT22;14341;51.256;22.478;2022-09-03T03:43:03;5.90;99.90
26743;DHT22;14341;51.256;22.478;2022-09-03T03:46:07;5.80;99.90
26743;DHT22;14341;51.256;22.478;2022-09-03T03:49:12;5.80;99.90
26743;DHT22;14341;51.256;22.478;2022-09-03T03:52:15;5.70;99.90
26743;DHT22;14341;51.256;22.478;2022-09-03T03:55:19;5.70;99.90
26743;DHT22;14341;51.256;22.478;2022-09-03T03:58:22;5.80;99.90
26743;DHT22;14341;51.256;22.478;2022-09-03T04:01:26;5.80;99.90
26743;DHT22;14341;51.256;22.478;2022-09-03T04:04:31;5.70;99.90
26743;DHT22;14341;51.256;22.478;2022-09-03T04:07:34;5.70;99.90
26743;DHT22;14341;51.256;22.478;2022-09-03T04:10:38;5.70;99.90
26743;DHT22;14341;51.256;22.478;2022-09-03T04:13:43;5.70;99.90
26743;DHT22;14341;51.256;22.478;2022-09-03T04:16:46;5.70;99.90
26743;DHT22;14341;51.256;22.478;2022-09-03T04:19:51;5.80;99.90
26743;DHT22;14341;51.256;22.478;2022-09-03T04:22:54;5.90;99.90
26743;DHT22;14341;51.256;22.478;2022-09-03T04:25:57;6.00;99.90
26743;DHT22;14341;51.256;22.478;2022-09-03T04:29:04;6.00;99.90
26743;DHT22;14341;51.256;22.478;2022-09-03T04:32:08;6.10;99.90
26743;DHT22;14341;51.256;22.478;2022-09-03T04:35:29;6.10;99.90
26743;DHT22;14341;51.256;22.478;2022-09-03T04:38:37;6.20;99.90
26743;DHT22;14341;51.256;22.478;2022-09-03T04:41:41;6.30;99.90
26743;DHT22;14341;51.256;22.478;2022-09-03T04:44:44;6.40;99.90
26743;DHT22;14341;51.256;22.478;2022-09-03T04:47:55;6.50;99.90
26743;DHT22;14341;51.256;22.478;2022-09-03T04:51:03;6.60;99.90
26743;DHT22;14341;51.256;22.478;2022-09-03T04:54:07;6.80;99.90
26743;DHT22;14341;51.256;22.478;2022-09-03T04:57:11;6.90;99.90
26743;DHT22;14341;51.256;22.478;2022-09-03T05:00:15;7.10;99.90
26743;DHT22;14341;51.256;22.478;2022-09-03T05:03:20;7.20;99.90
26743;DHT22;14341;51.256;22.478;2022-09-03T05:06:26;7.40;99.90
26743;DHT22;14341;51.256;22.478;2022-09-03T05:09:29;7.60;99.90
26743;DHT22;14341;51.256;22.478;2022-09-03T05:12:33;7.80;99.90
26743;DHT22;14341;51.256;22.478;2022-09-03T05:15:37;8.00;99.90
26743;DHT22;14341;51.256;22.478;2022-09-03T05:18:41;8.10;99.90
26743;DHT22;14341;51.256;22.478;2022-09-03T05:21:47;8.30;99.90
26743;DHT22;14341;51.256;22.478;2022-09-03T05:24:50;8.50;99.90
26743;DHT22;14341;51.256;22.478;2022-09-03T05:27:53;8.60;99.90
26743;DHT22;14341;51.256;22.478;2022-09-03T05:30:58;8.80;99.90
26743;DHT22;14341;51.256;22.478;2022-09-03T05:34:02;9.00;99.90
26743;DHT22;14341;51.256;22.478;2022-09-03T05:37:07;9.20;99.90
26743;DHT22;14341;51.256;22.478;2022-09-03T05:40:11;9.30;99.90
26743;DHT22;14341;51.256;22.478;2022-09-03T05:43:14;9.40;99.90
26743;DHT22;14341;51.256;22.478;2022-09-03T05:46:18;9.50;99.90
26743;DHT22;14341;51.256;22.478;2022-09-03T05:49:22;9.70;99.90
26743;DHT22;14341;51.256;22.478;2022-09-03T05:52:26;9.90;99.90
26743;DHT22;14341;51.256;22.478;2022-09-03T05:55:30;10.00;99.90
26743;DHT22;14341;51.256;22.478;2022-09-03T05:58:35;10.10;99.90
26743;DHT22;14341;51.256;22.478;2022-09-03T06:01:42;10.30;99.90
26743;DHT22;14341;51.256;22.478;2022-09-03T06:04:54;10.50;99.90
26743;DHT22;14341;51.256;22.478;2022-09-03T06:08:00;10.70;99.90
26743;DHT22;14341;51.256;22.478;2022-09-03T06:11:03;10.80;99.90
26743;DHT22;14341;51.256;22.478;2022-09-03T06:14:09;11.00;99.90
26743;DHT22;14341;51.256;22.478;2022-09-03T06:17:12;11.10;99.90
26743;DHT22;14341;51.256;22.478;2022-09-03T06:20:31;11.20;99.90
26743;DHT22;14341;51.256;22.478;2022-09-03T06:23:40;11.40;99.90
26743;DHT22;14341;51.256;22.478;2022-09-03T06:26:47;11.60;99.90
26743;DHT22;14341;51.256;22.478;2022-09-03T06:29:51;11.70;99.90
26743;DHT22;14341;51.256;22.478;2022-09-03T06:32:55;11.90;99.90
26743;DHT22;14341;51.256;22.478;2022-09-03T06:36:00;12.00;99.90
26743;DHT22;14341;51.256;22.478;2022-09-03T06:39:10;12.20;99.90
26743;DHT22;14341;51.256;22.478;2022-09-03T06:42:13;12.40;99.90
26743;DHT22;14341;51.256;22.478;2022-09-03T06:45:17;12.60;99.90
26743;DHT22;14341;51.256;22.478;2022-09-03T06:48:20;12.70;99.90
26743;DHT22;14341;51.256;22.478;2022-09-03T06:51:25;12.80;99.90
26743;DHT22;14341;51.256;22.478;2022-09-03T06:54:30;13.00;99.90
26743;DHT22;14341;51.256;22.478;2022-09-03T06:57:33;13.20;99.90
26743;DHT22;14341;51.256;22.478;2022-09-03T07:00:37;13.30;99.90
26743;DHT22;14341;51.256;22.478;2022-09-03T07:03:42;13.50;99.80
26743;DHT22;14341;51.256;22.478;2022-09-03T07:06:46;13.60;99.90
26743;DHT22;14341;51.256;22.478;2022-09-03T07:09:51;13.70;99.90
26743;DHT22;14341;51.256;22.478;2022-09-03T07:12:55;13.90;97.20
26743;DHT22;14341;51.256;22.478;2022-09-03T07:15:59;14.00;97.30
26743;DHT22;14341;51.256;22.478;2022-09-03T07:19:04;14.10;95.90
26743;DHT22;14341;51.256;22.478;2022-09-03T07:22:08;14.30;95.40
26743;DHT22;14341;51.256;22.478;2022-09-03T07:25:14;14.40;85.00
26743;DHT22;14341;51.256;22.478;2022-09-03T07:28:17;14.60;84.20
26743;DHT22;14341;51.256;22.478;2022-09-03T07:31:22;14.70;75.60
26743;DHT22;14341;51.256;22.478;2022-09-03T07:34:27;14.90;81.90
26743;DHT22;14341;51.256;22.478;2022-09-03T07:37:31;15.10;73.90
26743;DHT22;14341;51.256;22.478;2022-09-03T07:40:36;15.20;49.50
26743;DHT22;14341;51.256;22.478;2022-09-03T07:43:44;15.40;49.60
26743;DHT22;14341;51.256;22.478;2022-09-03T07:46:48;15.50;26.80
26743;DHT22;14341;51.256;22.478;2022-09-03T07:49:53;15.70;12.40
26743;DHT22;14341;51.256;22.478;2022-09-03T07:52:56;15.80;1.00
26743;DHT22;14341;51.256;22.478;2022-09-03T07:56:03;16.00;1.00
26743;DHT22;14341;51.256;22.478;2022-09-03T07:59:07;16.20;1.00
26743;DHT22;14341;51.256;22.478;2022-09-03T08:02:12;16.30;1.00
26743;DHT22;14341;51.256;22.478;2022-09-03T08:05:16;16.40;1.00
26743;DHT22;14341;51.256;22.478;2022-09-03T08:08:21;16.60;1.00
26743;DHT22;14341;51.256;22.478;2022-09-03T08:11:27;16.80;1.00
26743;DHT22;14341;51.256;22.478;2022-09-03T08:14:32;16.80;1.00
26743;DHT22;14341;51.256;22.478;2022-09-03T08:17:35;16.90;1.00
26743;DHT22;14341;51.256;22.478;2022-09-03T08:20:39;17.00;1.00
26743;DHT22;14341;51.256;22.478;2022-09-03T08:23:44;17.10;1.00
26743;DHT22;14341;51.256;22.478;2022-09-03T08:26:49;17.20;1.00
26743;DHT22;14341;51.256;22.478;2022-09-03T08:29:53;17.30;1.00
26743;DHT22;14341;51.256;22.478;2022-09-03T08:33:00;17.40;1.00
26743;DHT22;14341;51.256;22.478;2022-09-03T08:36:08;17.50;1.00
26743;DHT22;14341;51.256;22.478;2022-09-03T08:39:13;17.60;1.00
26743;DHT22;14341;51.256;22.478;2022-09-03T08:42:41;17.60;1.00
26743;DHT22;14341;51.256;22.478;2022-09-03T08:45:48;17.70;1.00
26743;DHT22;14341;51.256;22.478;2022-09-03T08:48:52;17.80;1.00
26743;DHT22;14341;51.256;22.478;2022-09-03T08:52:00;18.00;1.00
26743;DHT22;14341;51.256;22.478;2022-09-03T08:55:15;18.20;1.00
26743;DHT22;14341;51.256;22.478;2022-09-03T08:58:24;18.20;1.00
26743;DHT22;14341;51.256;22.478;2022-09-03T09:01:33;18.30;1.00
26743;DHT22;14341;51.256;22.478;2022-09-03T09:04:42;18.50;1.00
26743;DHT22;14341;51.256;22.478;2022-09-03T09:07:55;18.60;1.00
26743;DHT22;14341;51.256;22.478;2022-09-03T09:11:10;18.80;1.00
26743;DHT22;14341;51.256;22.478;2022-09-03T09:14:25;18.90;1.00
26743;DHT22;14341;51.256;22.478;2022-09-03T09:21:05;19.00;1.00
26743;DHT22;14341;51.256;22.478;2022-09-03T09:24:15;19.00;1.00
26743;DHT22;14341;51.256;22.478;2022-09-03T09:27:23;19.20;1.00
26743;DHT22;14341;51.256;22.478;2022-09-03T09:30:30;19.20;1.00
26743;DHT22;14341;51.256;22.478;2022-09-03T09:33:34;19.30;1.00
26743;DHT22;14341;51.256;22.478;2022-09-03T09:36:43;19.20;1.00
26743;DHT22;14341;51.256;22.478;2022-09-03T09:39:54;19.10;1.00
26743;DHT22;14341;51.256;22.478;2022-09-03T09:43:06;19.30;1.00
26743;DHT22;14341;51.256;22.478;2022-09-03T09:46:14;19.50;1.00
26743;DHT22;14341;51.256;22.478;2022-09-03T09:49:29;19.70;1.00
26743;DHT22;14341;51.256;22.478;2022-09-03T09:52:34;19.80;1.00
26743;DHT22;14341;51.256;22.478;2022-09-03T09:55:53;19.90;1.00
26743;DHT22;14341;51.256;22.478;2022-09-03T09:59:04;19.70;1.00
26743;DHT22;14341;51.256;22.478;2022-09-03T10:02:12;19.80;1.00
26743;DHT22;14341;51.256;22.478;2022-09-03T10:05:25;19.80;1.00
26743;DHT22;14341;51.256;22.478;2022-09-03T10:09:12;20.00;1.00
26743;DHT22;14341;51.256;22.478;2022-09-03T10:12:35;20.10;1.00
26743;DHT22;14341;51.256;22.478;2022-09-03T10:16:14;20.30;1.00
26743;DHT22;14341;51.256;22.478;2022-09-03T10:23:57;20.60;1.00
26743;DHT22;14341;51.256;22.478;2022-09-03T10:27:17;20.50;1.00
26743;DHT22;14341;51.256;22.478;2022-09-03T10:34:17;20.50;1.00
26743;DHT22;14341;51.256;22.478;2022-09-03T10:37:37;20.70;1.00
26743;DHT22;14341;51.256;22.478;2022-09-03T10:41:11;20.90;1.00
26743;DHT22;14341;51.256;22.478;2022-09-03T10:48:40;20.90;1.00
26743;DHT22;14341;51.256;22.478;2022-09-03T10:52:34;21.10;1.00
26743;DHT22;14341;51.256;22.478;2022-09-03T10:56:00;21.50;1.00
26743;DHT22;14341;51.256;22.478;2022-09-03T10:59:54;21.40;1.00
26743;DHT22;14341;51.256;22.478;2022-09-03T11:03:39;21.50;1.00
26743;DHT22;14341;51.256;22.478;2022-09-03T11:06:56;21.60;1.00
26743;DHT22;14341;51.256;22.478;2022-09-03T11:10:18;21.90;1.00
26743;DHT22;14341;51.256;22.478;2022-09-03T11:13:36;21.80;1.00
26743;DHT22;14341;51.256;22.478;2022-09-03T11:17:31;22.40;1.00
26743;DHT22;14341;51.256;22.478;2022-09-03T11:20:36;22.50;1.00
26743;DHT22;14341;51.256;22.478;2022-09-03T11:23:52;23.40;1.00
26743;DHT22;14341;51.256;22.478;2022-09-03T11:27:42;23.30;1.00
26743;DHT22;14341;51.256;22.478;2022-09-03T11:31:19;23.10;1.00
26743;DHT22;14341;51.256;22.478;2022-09-03T11:34:50;23.60;1.00
26743;DHT22;14341;51.256;22.478;2022-09-03T11:38:03;24.00;1.00
26743;DHT22;14341;51.256;22.478;2022-09-03T11:41:24;25.10;1.00
26743;DHT22;14341;51.256;22.478;2022-09-03T11:44:42;25.40;1.00
26743;DHT22;14341;51.256;22.478;2022-09-03T11:47:59;25.50;1.00
26743;DHT22;14341;51.256;22.478;2022-09-03T11:51:02;24.20;1.00
26743;DHT22;14341;51.256;22.478;2022-09-03T11:54:44;23.30;1.00
26743;DHT22;14341;51.256;22.478;2022-09-03T12:02:35;24.80;1.00
26743;DHT22;14341;51.256;22.478;2022-09-03T12:05:47;26.30;1.00
26743;DHT22;14341;51.256;22.478;2022-09-03T12:12:42;24.80;1.00
26743;DHT22;14341;51.256;22.478;2022-09-03T12:19:39;26.00;1.00
26743;DHT22;14341;51.256;22.478;2022-09-03T12:22:46;26.20;1.00
26743;DHT22;14341;51.256;22.478;2022-09-03T12:25:59;25.00;1.00
26743;DHT22;14341;51.256;22.478;2022-09-03T12:29:03;26.10;1.00
26743;DHT22;14341;51.256;22.478;2022-09-03T12:32:14;25.80;1.00
26743;DHT22;14341;51.256;22.478;2022-09-03T12:35:40;27.30;1.00
26743;DHT22;14341;51.256;22.478;2022-09-03T12:39:11;28.20;1.00
26743;DHT22;14341;51.256;22.478;2022-09-03T12:42:22;26.80;1.00
26743;DHT22;14341;51.256;22.478;2022-09-03T12:45:31;26.40;1.00
26743;DHT22;14341;51.256;22.478;2022-09-03T12:48:57;26.00;1.00
26743;DHT22;14341;51.256;22.478;2022-09-03T12:52:40;24.70;1.00
26743;DHT22;14341;51.256;22.478;2022-09-03T12:56:02;26.10;1.00
26743;DHT22;14341;51.256;22.478;2022-09-03T12:59:12;25.50;1.00
26743;DHT22;14341;51.256;22.478;2022-09-03T13:02:25;26.30;1.00
26743;DHT22;14341;51.256;22.478;2022-09-03T13:05:41;24.00;1.00
26743;DHT22;14341;51.256;22.478;2022-09-03T13:08:53;24.30;1.00
26743;DHT22;14341;51.256;22.478;2022-09-03T13:11:57;25.00;1.00
26743;DHT22;14341;51.256;22.478;2022-09-03T13:15:07;24.40;1.00
26743;DHT22;14341;51.256;22.478;2022-09-03T13:18:19;24.70;1.00
26743;DHT22;14341;51.256;22.478;2022-09-03T13:21:34;25.00;1.00
26743;DHT22;14341;51.256;22.478;2022-09-03T13:25:19;23.50;1.00
26743;DHT22;14341;51.256;22.478;2022-09-03T13:28:35;23.40;1.00
26743;DHT22;14341;51.256;22.478;2022-09-03T13:31:46;23.30;1.00
26743;DHT22;14341;51.256;22.478;2022-09-03T13:34:55;22.70;1.00
26743;DHT22;14341;51.256;22.478;2022-09-03T13:38:07;22.80;1.00
26743;DHT22;14341;51.256;22.478;2022-09-03T13:41:17;22.50;1.00
26743;DHT22;14341;51.256;22.478;2022-09-03T13:44:41;22.50;1.00
26743;DHT22;14341;51.256;22.478;2022-09-03T13:47:49;22.50;1.00
26743;DHT22;14341;51.256;22.478;2022-09-03T13:51:17;21.70;1.00
26743;DHT22;14341;51.256;22.478;2022-09-03T13:54:26;20.80;1.00
26743;DHT22;14341;51.256;22.478;2022-09-03T13:57:54;20.30;1.00
26743;DHT22;14341;51.256;22.478;2022-09-03T14:01:10;20.40;1.00
26743;DHT22;14341;51.256;22.478;2022-09-03T14:04:21;20.00;1.00
26743;DHT22;14341;51.256;22.478;2022-09-03T14:07:47;20.00;1.00
26743;DHT22;14341;51.256;22.478;2022-09-03T14:11:04;19.60;1.00
26743;DHT22;14341;51.256;22.478;2022-09-03T14:14:20;19.70;1.00
26743;DHT22;14341;51.256;22.478;2022-09-03T14:17:36;20.40;1.00
26743;DHT22;14341;51.256;22.478;2022-09-03T14:20:48;21.20;1.00
26743;DHT22;14341;51.256;22.478;2022-09-03T14:24:03;21.80;1.00
26743;DHT22;14341;51.256;22.478;2022-09-03T14:27:10;23.00;1.00
26743;DHT22;14341;51.256;22.478;2022-09-03T14:30:29;23.60;1.00
26743;DHT22;14341;51.256;22.478;2022-09-03T14:33:41;25.00;1.00
26743;DHT22;14341;51.256;22.478;2022-09-03T14:37:06;25.30;1.00
26743;DHT22;14341;51.256;22.478;2022-09-03T14:40:14;24.90;1.00
26743;DHT22;14341;51.256;22.478;2022-09-03T14:43:40;25.30;1.00
26743;DHT22;14341;51.256;22.478;2022-09-03T14:47:09;24.70;1.00
26743;DHT22;14341;51.256;22.478;2022-09-03T14:50:33;24.60;1.00
26743;DHT22;14341;51.256;22.478;2022-09-03T14:54:13;24.80;1.00
26743;DHT22;14341;51.256;22.478;2022-09-03T15:03:25;25.00;1.00
26743;DHT22;14341;51.256;22.478;2022-09-03T15:11:14;25.10;1.00
26743;DHT22;14341;51.256;22.478;2022-09-03T15:14:29;25.20;1.00
26743;DHT22;14341;51.256;22.478;2022-09-03T15:17:53;25.20;1.00
26743;DHT22;14341;51.256;22.478;2022-09-03T15:21:06;25.00;1.00
26743;DHT22;14341;51.256;22.478;2022-09-03T15:24:23;25.10;1.00
26743;DHT22;14341;51.256;22.478;2022-09-03T15:27:46;25.20;1.00
26743;DHT22;14341;51.256;22.478;2022-09-03T15:31:04;25.60;1.00
26743;DHT22;14341;51.256;22.478;2022-09-03T15:38:03;25.30;1.00
26743;DHT22;14341;51.256;22.478;2022-09-03T15:41:43;24.80;1.00
26743;DHT22;14341;51.256;22.478;2022-09-03T15:45:20;26.60;1.00
26743;DHT22;14341;51.256;22.478;2022-09-03T15:49:25;26.90;1.00
26743;DHT22;14341;51.256;22.478;2022-09-03T15:52:39;26.10;1.00
26743;DHT22;14341;51.256;22.478;2022-09-03T15:56:21;25.50;1.00
26743;DHT22;14341;51.256;22.478;2022-09-03T15:59:56;24.30;1.00
26743;DHT22;14341;51.256;22.478;2022-09-03T16:03:40;23.40;1.00
26743;DHT22;14341;51.256;22.478;2022-09-03T16:07:36;21.00;1.00
26743;DHT22;14341;51.256;22.478;2022-09-03T16:15:20;20.10;1.00
26743;DHT22;14341;51.256;22.478;2022-09-03T16:18:36;19.70;1.00
26743;DHT22;14341;51.256;22.478;2022-09-03T16:21:58;19.20;1.00
26743;DHT22;14341;51.256;22.478;2022-09-03T16:25:28;19.00;1.00
26743;DHT22;14341;51.256;22.478;2022-09-03T16:28:46;18.80;1.00
26743;DHT22;14341;51.256;22.478;2022-09-03T16:32:19;18.70;1.00
26743;DHT22;14341;51.256;22.478;2022-09-03T16:35:45;18.40;1.00
26743;DHT22;14341;51.256;22.478;2022-09-03T16:39:05;18.10;1.00
26743;DHT22;14341;51.256;22.478;2022-09-03T16:46:23;17.90;24.80
26743;DHT22;14341;51.256;22.478;2022-09-03T16:49:45;17.60;49.60
26743;DHT22;14341;51.256;22.478;2022-09-03T16:53:00;17.40;74.80
26743;DHT22;14341;51.256;22.478;2022-09-03T16:56:21;17.30;78.10
26743;DHT22;14341;51.256;22.478;2022-09-03T16:59:54;17.10;85.40
26743;DHT22;14341;51.256;22.478;2022-09-03T17:06:57;16.50;96.70
26743;DHT22;14341;51.256;22.478;2022-09-03T17:10:13;16.40;99.90
26743;DHT22;14341;51.256;22.478;2022-09-03T17:16:57;16.10;99.90
26743;DHT22;14341;51.256;22.478;2022-09-03T17:20:07;15.90;99.90
26743;DHT22;14341;51.256;22.478;2022-09-03T17:23:30;15.80;99.90
26743;DHT22;14341;51.256;22.478;2022-09-03T17:26:50;15.60;99.90
26743;DHT22;14341;51.256;22.478;2022-09-03T17:30:07;15.50;99.90
26743;DHT22;14341;51.256;22.478;2022-09-03T17:33:31;15.10;99.90
26743;DHT22;14341;51.256;22.478;2022-09-03T17:36:37;14.80;99.90
26743;DHT22;14341;51.256;22.478;2022-09-03T17:40:08;14.60;99.90
26743;DHT22;14341;51.256;22.478;2022-09-03T17:43:22;14.50;99.90
26743;DHT22;14341;51.256;22.478;2022-09-03T17:46:34;14.40;99.90
26743;DHT22;14341;51.256;22.478;2022-09-03T17:49:45;14.30;99.90
26743;DHT22;14341;51.256;22.478;2022-09-03T17:52:51;14.10;99.90
26743;DHT22;14341;51.256;22.478;2022-09-03T17:56:00;14.00;99.90
26743;DHT22;14341;51.256;22.478;2022-09-03T17:59:09;13.80;99.90
26743;DHT22;14341;51.256;22.478;2022-09-03T18:02:26;13.80;99.90
26743;DHT22;14341;51.256;22.478;2022-09-03T18:05:40;13.70;99.90
26743;DHT22;14341;51.256;22.478;2022-09-03T18:08:51;13.60;99.90
26743;DHT22;14341;51.256;22.478;2022-09-03T18:12:06;13.50;99.90
26743;DHT22;14341;51.256;22.478;2022-09-03T18:15:17;13.40;99.90
26743;DHT22;14341;51.256;22.478;2022-09-03T18:18:26;13.40;99.90
26743;DHT22;14341;51.256;22.478;2022-09-03T18:21:35;13.30;99.90
26743;DHT22;14341;51.256;22.478;2022-09-03T18:24:58;13.10;99.90
26743;DHT22;14341;51.256;22.478;2022-09-03T18:28:28;13.10;99.90
26743;DHT22;14341;51.256;22.478;2022-09-03T18:31:51;12.90;99.90
26743;DHT22;14341;51.256;22.478;2022-09-03T18:35:11;12.80;99.90
26743;DHT22;14341;51.256;22.478;2022-09-03T18:38:35;12.80;99.90
26743;DHT22;14341;51.256;22.478;2022-09-03T18:42:00;12.70;99.90
26743;DHT22;14341;51.256;22.478;2022-09-03T18:45:30;12.50;99.90
26743;DHT22;14341;51.256;22.478;2022-09-03T18:49:22;12.50;99.90
26743;DHT22;14341;51.256;22.478;2022-09-03T18:52:50;12.40;99.90
26743;DHT22;14341;51.256;22.478;2022-09-03T18:56:18;12.30;99.90
26743;DHT22;14341;51.256;22.478;2022-09-03T19:00:01;12.30;99.90
26743;DHT22;14341;51.256;22.478;2022-09-03T19:03:41;12.10;99.90
26743;DHT22;14341;51.256;22.478;2022-09-03T19:07:08;12.00;99.90
26743;DHT22;14341;51.256;22.478;2022-09-03T19:10:39;12.00;99.90
26743;DHT22;14341;51.256;22.478;2022-09-03T19:14:07;11.90;99.90
26743;DHT22;14341;51.256;22.478;2022-09-03T19:17:52;11.80;99.90
26743;DHT22;14341;51.256;22.478;2022-09-03T19:21:25;11.80;99.90
26743;DHT22;14341;51.256;22.478;2022-09-03T19:24:51;11.70;99.90
26743;DHT22;14341;51.256;22.478;2022-09-03T19:28:17;11.60;99.90
26743;DHT22;14341;51.256;22.478;2022-09-03T19:31:44;11.50;99.90
26743;DHT22;14341;51.256;22.478;2022-09-03T19:35:18;11.50;99.90
26743;DHT22;14341;51.256;22.478;2022-09-03T19:38:48;11.40;99.90
26743;DHT22;14341;51.256;22.478;2022-09-03T19:42:21;11.30;99.90
26743;DHT22;14341;51.256;22.478;2022-09-03T19:45:56;11.30;99.90
26743;DHT22;14341;51.256;22.478;2022-09-03T19:49:29;11.20;99.90
26743;DHT22;14341;51.256;22.478;2022-09-03T19:52:56;11.10;99.90
26743;DHT22;14341;51.256;22.478;2022-09-03T19:56:26;11.00;99.90
26743;DHT22;14341;51.256;22.478;2022-09-03T19:59:48;11.00;99.90
26743;DHT22;14341;51.256;22.478;2022-09-03T20:03:13;11.00;99.90
26743;DHT22;14341;51.256;22.478;2022-09-03T20:06:35;10.90;99.90
26743;DHT22;14341;51.256;22.478;2022-09-03T20:10:02;10.90;99.90
26743;DHT22;14341;51.256;22.478;2022-09-03T20:13:24;10.80;99.90
26743;DHT22;14341;51.256;22.478;2022-09-03T20:16:31;10.90;99.90
26743;DHT22;14341;51.256;22.478;2022-09-03T20:19:42;10.90;99.90
26743;DHT22;14341;51.256;22.478;2022-09-03T20:22:54;10.90;99.90
26743;DHT22;14341;51.256;22.478;2022-09-03T20:29:42;10.70;99.90
26743;DHT22;14341;51.256;22.478;2022-09-03T20:32:57;10.70;99.90
26743;DHT22;14341;51.256;22.478;2022-09-03T20:36:10;10.70;99.90
26743;DHT22;14341;51.256;22.478;2022-09-03T20:39:36;10.70;99.90
26743;DHT22;14341;51.256;22.478;2022-09-03T20:43:06;10.60;99.90
26743;DHT22;14341;51.256;22.478;2022-09-03T20:46:23;10.60;99.90
26743;DHT22;14341;51.256;22.478;2022-09-03T20:49:39;10.60;99.90
26743;DHT22;14341;51.256;22.478;2022-09-03T20:52:49;10.60;99.90
26743;DHT22;14341;51.256;22.478;2022-09-03T20:55:57;10.50;99.90
26743;DHT22;14341;51.256;22.478;2022-09-03T20:59:08;10.50;99.90
26743;DHT22;14341;51.256;22.478;2022-09-03T21:02:24;10.40;99.90
26743;DHT22;14341;51.256;22.478;2022-09-03T21:05:33;10.40;99.90
26743;DHT22;14341;51.256;22.478;2022-09-03T21:08:59;10.30;99.90
26743;DHT22;14341;51.256;22.478;2022-09-03T21:12:10;10.30;99.90
26743;DHT22;14341;51.256;22.478;2022-09-03T21:15:24;10.20;99.90
26743;DHT22;14341;51.256;22.478;2022-09-03T21:18:36;10.20;99.90
26743;DHT22;14341;51.256;22.478;2022-09-03T21:21:49;10.10;99.90